Capitol Logistics 7300

Operating for MZN



KPDX
Portland International Airport
Portland, Oregon
KCVG
Cincinnati/Northern Kentucky International Airport
Covington, Kentucky

Activity Log

Date Flight Route Aircraft Duration
No Flights Yet

Route Details

Aircraft Information
Primary: Boeing 767-300BDSF
Backup: Boeing 757-200SF
Route Data
Distance: 1714nm
Duration: 3h 54m
Recm'd Route: LAVAA6 PDT DNJ J82 DBS MBW LBF PWE STL ENL SARGO3
Origin Wx: KPDX 180153Z 29006KT 10SM CLR 28/M01 A3008 RMK AO2 SLP187 T02781011
Dest. Wx: KCVG 180152Z 21003KT 10SM CLR 07/04 A2993 RMK AO2 SLP133 T00720039
Notes: